createdAt,value
2023-05-06T00:00:25.592Z,68.3782
2023-05-06T00:01:26.583Z,68.3578
2023-05-06T00:02:27.590Z,68.3391
2023-05-06T00:03:28.958Z,68.3266
2023-05-06T00:04:29.219Z,68.3194
2023-05-06T00:05:29.371Z,68.3103
2023-05-06T00:06:29.910Z,68.3072
2023-05-06T00:07:30.720Z,68.3024
2023-05-06T00:08:31.481Z,68.3022
2023-05-06T00:09:31.863Z,68.3076
2023-05-06T00:10:32.518Z,68.3140
2023-05-06T00:11:33.122Z,68.3128
2023-05-06T00:12:33.866Z,68.3083
2023-05-06T00:13:34.571Z,68.3014
2023-05-06T00:14:35.376Z,68.2910
2023-05-06T00:15:36.267Z,68.2775
2023-05-06T00:16:37.231Z,68.2654
2023-05-06T00:17:38.488Z,68.2490
2023-05-06T00:18:39.270Z,68.2343
2023-05-06T00:19:40.126Z,68.2187
2023-05-06T00:20:40.743Z,68.1984
2023-05-06T00:21:41.130Z,68.1809
2023-05-06T00:22:41.734Z,68.1657
2023-05-06T00:23:42.541Z,68.1558
2023-05-06T00:24:43.543Z,68.1520
2023-05-06T00:25:43.759Z,68.1556
2023-05-06T00:26:44.115Z,68.1595
2023-05-06T00:27:45.115Z,68.1698
2023-05-06T00:28:45.410Z,68.1805
2023-05-06T00:29:45.935Z,68.1923
2023-05-06T00:30:46.742Z,68.1942
2023-05-06T00:31:47.386Z,68.2010
2023-05-06T00:32:47.798Z,68.2085
2023-05-06T00:33:48.444Z,68.2216
2023-05-06T00:34:49.000Z,68.2403
2023-05-06T00:35:49.677Z,68.2684
2023-05-06T00:36:50.270Z,68.3010
2023-05-06T00:37:51.198Z,68.3332
2023-05-06T00:38:51.613Z,68.3621
2023-05-06T00:39:52.370Z,68.3916
2023-05-06T00:40:53.073Z,68.4141
2023-05-06T00:41:53.780Z,68.4286
2023-05-06T00:42:54.636Z,68.4357
2023-05-06T00:43:55.063Z,68.4408
2023-05-06T00:44:55.596Z,68.4435
2023-05-06T00:45:55.606Z,68.4467
2023-05-06T00:46:56.247Z,68.4492
2023-05-06T00:47:56.961Z,68.4526
2023-05-06T00:48:57.496Z,68.4501
2023-05-06T00:49:58.040Z,68.4591
2023-05-06T00:50:58.575Z,68.4564
2023-05-06T00:51:59.039Z,68.4596
2023-05-06T00:52:59.786Z,68.4616
2023-05-06T00:54:00.470Z,68.4723
2023-05-06T00:55:01.079Z,68.5025
2023-05-06T00:56:01.762Z,68.5479
2023-05-06T00:57:02.458Z,68.6020
2023-05-06T00:58:03.441Z,68.6410
2023-05-06T00:59:03.956Z,68.6637
2023-05-06T01:00:04.669Z,68.6828
2023-05-06T01:01:05.726Z,68.6963
2023-05-06T01:02:06.675Z,68.7094
2023-05-06T01:03:07.748Z,68.7273
2023-05-06T01:04:08.398Z,68.7261
2023-05-06T01:05:09.263Z,68.7255
2023-05-06T01:06:09.850Z,68.7288
2023-05-06T01:07:10.405Z,68.7301
2023-05-06T01:08:11.178Z,68.7806
2023-05-06T01:09:12.046Z,68.8380
2023-05-06T01:10:12.739Z,68.8473
2023-05-06T01:11:15.625Z,68.8474
2023-05-06T01:12:13.989Z,68.8508
2023-05-06T01:13:15.184Z,68.8562
2023-05-06T01:14:16.073Z,68.8728
2023-05-06T01:15:16.251Z,68.8943
2023-05-06T01:16:17.350Z,68.9758
2023-05-06T01:17:18.461Z,69.1052
2023-05-06T01:18:18.709Z,69.2013
2023-05-06T01:19:19.406Z,69.2880
2023-05-06T01:20:20.244Z,69.3985
2023-05-06T01:21:20.965Z,69.4812
2023-05-06T01:22:21.835Z,69.5233
2023-05-06T01:23:22.586Z,69.5459
2023-05-06T01:24:23.476Z,69.5592
2023-05-06T01:25:23.790Z,69.5913
2023-05-06T01:26:24.618Z,69.6549
2023-05-06T01:27:25.569Z,69.7498
2023-05-06T01:28:26.496Z,69.9349
2023-05-06T01:29:27.354Z,70.0291
2023-05-06T01:30:28.502Z,70.0805
2023-05-06T01:31:29.407Z,70.0965
2023-05-06T01:32:30.480Z,70.0972
2023-05-06T01:33:31.568Z,70.0942
2023-05-06T01:34:32.508Z,70.0844
2023-05-06T01:35:32.636Z,70.0700
2023-05-06T01:36:33.360Z,70.0613
2023-05-06T01:37:34.511Z,70.0560
2023-05-06T01:38:35.238Z,70.0480
2023-05-06T01:39:36.063Z,70.0460
2023-05-06T01:40:36.973Z,70.0421
2023-05-06T01:41:37.616Z,70.0459
2023-05-06T01:42:38.564Z,70.0507
2023-05-06T01:43:39.236Z,70.0504
2023-05-06T01:44:40.224Z,70.0516
2023-05-06T01:45:41.110Z,70.0502
2023-05-06T01:46:42.215Z,70.0559
2023-05-06T01:47:43.469Z,70.0772
2023-05-06T01:48:44.335Z,70.0919
2023-05-06T01:49:45.271Z,70.1090
2023-05-06T01:50:46.287Z,70.1204
2023-05-06T01:51:47.385Z,70.1342
2023-05-06T01:52:48.280Z,70.1449
2023-05-06T01:53:49.059Z,70.1522
2023-05-06T01:54:50.000Z,70.1460
2023-05-06T01:55:50.937Z,70.1385
2023-05-06T01:56:51.763Z,70.1247
2023-05-06T01:57:52.687Z,70.1029
2023-05-06T01:58:53.383Z,70.0844
2023-05-06T01:59:54.248Z,70.0636
2023-05-06T02:00:55.128Z,70.0428
2023-05-06T02:01:56.062Z,70.0374
2023-05-06T02:02:56.979Z,70.0441
2023-05-06T02:03:57.567Z,70.0462
2023-05-06T02:04:58.783Z,70.0413
2023-05-06T02:05:59.482Z,70.0305
2023-05-06T02:07:00.312Z,70.0127
2023-05-06T02:08:01.240Z,69.9906
2023-05-06T02:09:02.051Z,69.9687
2023-05-06T02:10:02.971Z,69.9359
2023-05-06T02:11:03.629Z,69.9121
2023-05-06T02:12:04.455Z,69.8859
2023-05-06T02:13:05.419Z,69.8617
2023-05-06T02:14:06.288Z,69.8417
2023-05-06T02:15:07.322Z,69.8263
2023-05-06T02:16:08.423Z,69.8113
2023-05-06T02:17:09.677Z,69.8535
2023-05-06T02:18:10.807Z,70.1276
2023-05-06T02:19:11.513Z,70.3433
2023-05-06T02:20:12.407Z,70.4382
2023-05-06T02:21:13.119Z,70.4905
2023-05-06T02:22:13.953Z,70.5302
2023-05-06T02:23:14.624Z,70.5513
2023-05-06T02:24:15.624Z,70.5782
2023-05-06T02:25:16.508Z,70.6093
2023-05-06T02:26:17.322Z,70.6177
2023-05-06T02:27:18.317Z,70.6184
2023-05-06T02:28:19.258Z,70.6174
2023-05-06T02:29:20.177Z,70.6113
2023-05-06T02:30:21.007Z,70.6949
2023-05-06T02:31:21.890Z,70.8836
2023-05-06T02:32:21.990Z,70.9659
2023-05-06T02:33:22.750Z,70.9700
2023-05-06T02:34:23.437Z,70.9967
2023-05-06T02:35:24.045Z,71.0265
2023-05-06T02:36:24.836Z,71.0586
2023-05-06T02:37:25.291Z,71.0926
2023-05-06T02:38:26.017Z,71.1105
2023-05-06T02:39:26.511Z,71.1197
2023-05-06T02:40:27.222Z,71.1269
2023-05-06T02:41:28.130Z,71.1238
2023-05-06T02:42:29.077Z,71.1041
2023-05-06T02:43:30.275Z,71.0791
2023-05-06T02:44:30.384Z,71.0669
2023-05-06T02:45:31.350Z,71.0473
2023-05-06T02:46:32.100Z,71.0359
2023-05-06T02:47:33.041Z,71.0228
2023-05-06T02:48:33.955Z,71.0101
2023-05-06T02:49:34.878Z,70.9969
2023-05-06T02:50:35.809Z,70.9872
2023-05-06T02:51:36.570Z,70.9808
2023-05-06T02:52:37.494Z,70.9878
2023-05-06T02:53:38.224Z,70.9899
2023-05-06T02:54:39.105Z,70.9999
2023-05-06T02:55:40.048Z,71.0074
2023-05-06T02:56:40.764Z,71.0106
2023-05-06T02:57:41.716Z,71.0231
2023-05-06T02:58:42.437Z,71.0391
2023-05-06T02:59:43.395Z,71.0595
2023-05-06T03:00:44.387Z,71.0872
2023-05-06T03:01:45.381Z,71.1096
2023-05-06T03:02:46.322Z,71.1260
2023-05-06T03:03:47.160Z,71.1432
2023-05-06T03:04:48.257Z,71.1482
2023-05-06T03:05:49.364Z,71.1478
2023-05-06T03:06:50.110Z,71.1373
2023-05-06T03:07:51.031Z,71.1331
2023-05-06T03:08:51.802Z,71.1392
2023-05-06T03:09:52.685Z,71.1573
2023-05-06T03:10:53.473Z,71.1925
2023-05-06T03:11:54.436Z,71.2380
2023-05-06T03:12:55.363Z,71.2689
2023-05-06T03:13:56.384Z,71.2985
2023-05-06T03:14:57.459Z,71.3118
2023-05-06T03:15:58.261Z,71.3263
2023-05-06T03:16:59.368Z,71.3320
2023-05-06T03:17:59.705Z,71.3354
2023-05-06T03:19:00.675Z,71.3290
2023-05-06T03:20:01.729Z,71.3181
2023-05-06T03:21:02.527Z,71.3085
2023-05-06T03:22:03.806Z,71.2964
2023-05-06T03:23:04.674Z,71.2858
2023-05-06T03:24:05.577Z,71.2797
2023-05-06T03:25:06.512Z,71.2799
2023-05-06T03:26:06.598Z,71.2815
2023-05-06T03:27:07.640Z,71.2843
2023-05-06T03:28:08.607Z,71.2889
2023-05-06T03:29:09.428Z,71.3206
2023-05-06T03:30:10.517Z,71.3554
2023-05-06T03:31:11.382Z,71.3820
2023-05-06T03:32:11.536Z,71.4127
2023-05-06T03:33:12.871Z,71.4358
2023-05-06T03:34:13.741Z,71.4560
2023-05-06T03:35:14.475Z,71.4746
2023-05-06T03:36:15.270Z,71.4877
2023-05-06T03:37:16.303Z,71.4953
2023-05-06T03:38:17.196Z,71.5043
2023-05-06T03:39:18.294Z,71.5128
2023-05-06T03:40:19.264Z,71.5265
2023-05-06T03:41:19.993Z,71.5427
2023-05-06T03:42:20.724Z,71.5668
2023-05-06T03:43:21.470Z,71.5937
2023-05-06T03:44:22.461Z,71.6185
2023-05-06T03:45:23.383Z,71.6392
2023-05-06T03:46:24.390Z,71.6634
2023-05-06T03:47:25.657Z,71.6870
2023-05-06T03:48:26.759Z,71.7076
2023-05-06T03:49:27.899Z,71.7220
2023-05-06T03:50:28.978Z,71.7348
2023-05-06T03:51:29.987Z,71.7409
2023-05-06T03:52:31.021Z,71.7473
2023-05-06T03:53:31.906Z,71.7464
2023-05-06T03:54:32.883Z,71.7436
2023-05-06T03:55:33.189Z,71.7310
2023-05-06T03:56:34.016Z,71.7176
2023-05-06T03:57:35.296Z,71.7095
2023-05-06T03:58:36.338Z,71.7039
2023-05-06T03:59:37.239Z,71.7012
2023-05-06T04:00:38.355Z,71.6960
2023-05-06T04:01:39.299Z,71.6950
2023-05-06T04:02:39.653Z,71.6884
2023-05-06T04:03:40.015Z,71.6931
2023-05-06T04:04:39.976Z,71.7117
2023-05-06T04:05:41.009Z,71.7414
2023-05-06T04:06:41.947Z,71.7815
2023-05-06T04:07:42.875Z,71.8121
2023-05-06T04:08:43.744Z,71.8412
2023-05-06T04:09:44.738Z,71.8578
2023-05-06T04:10:45.857Z,71.8612
2023-05-06T04:11:45.845Z,71.8604
2023-05-06T04:12:46.881Z,71.8528
2023-05-06T04:13:46.911Z,71.8404
2023-05-06T04:14:47.922Z,71.8260
2023-05-06T04:15:48.723Z,71.8146
2023-05-06T04:16:49.780Z,71.8072
2023-05-06T04:17:50.636Z,71.8002
2023-05-06T04:18:51.687Z,71.7975
2023-05-06T04:19:52.578Z,71.7923
2023-05-06T04:20:53.444Z,71.7819
2023-05-06T04:21:54.565Z,71.7726
2023-05-06T04:22:55.389Z,71.7580
2023-05-06T04:23:56.344Z,71.7484
2023-05-06T04:24:57.416Z,71.7355
2023-05-06T04:25:58.244Z,71.7349
2023-05-06T04:26:59.190Z,71.7397
2023-05-06T04:28:00.155Z,71.7471
2023-05-06T04:29:01.111Z,71.7496
2023-05-06T04:30:02.404Z,71.7503
2023-05-06T04:31:03.187Z,71.7626
2023-05-06T04:32:04.404Z,71.7611
2023-05-06T04:33:05.525Z,71.7548
2023-05-06T04:34:05.885Z,71.7447
2023-05-06T04:35:07.117Z,71.7500
2023-05-06T04:36:08.070Z,71.7550
2023-05-06T04:37:09.173Z,71.7633
2023-05-06T04:38:09.948Z,71.7659
2023-05-06T04:39:11.027Z,71.7614
2023-05-06T04:40:12.090Z,71.7507
2023-05-06T04:41:12.956Z,71.7512
2023-05-06T04:42:14.147Z,71.7496
2023-05-06T04:43:15.082Z,71.7460
2023-05-06T04:44:16.169Z,71.7427
2023-05-06T04:45:17.242Z,71.7310
2023-05-06T04:46:18.395Z,71.7194
2023-05-06T04:47:19.513Z,71.7099
2023-05-06T04:48:20.700Z,71.7027
2023-05-06T04:49:21.829Z,71.6986
2023-05-06T04:50:22.947Z,71.6958
2023-05-06T04:51:24.006Z,71.6788
2023-05-06T04:52:24.108Z,71.6547
2023-05-06T04:53:25.575Z,71.6321
2023-05-06T04:54:26.569Z,71.6090
2023-05-06T04:55:26.986Z,71.5899
2023-05-06T04:56:27.952Z,71.5786
2023-05-06T04:57:29.067Z,71.5667
2023-05-06T04:58:30.161Z,71.5649
2023-05-06T04:59:31.137Z,71.5658
2023-05-06T05:00:32.318Z,71.5700
2023-05-06T05:01:33.561Z,71.5758
2023-05-06T05:02:33.934Z,71.5859
2023-05-06T05:03:34.686Z,71.5992
2023-05-06T05:04:34.622Z,71.6160
2023-05-06T05:05:34.684Z,71.6357
2023-05-06T05:06:35.584Z,71.6523
2023-05-06T05:07:36.743Z,71.6724
2023-05-06T05:08:37.719Z,71.6884
2023-05-06T05:09:38.984Z,71.7044
2023-05-06T05:11:39.704Z,71.7206
2023-05-06T05:12:41.044Z,71.7219
2023-05-06T05:13:40.998Z,71.7217
2023-05-06T05:14:42.148Z,71.7192
2023-05-06T05:15:42.315Z,71.7239
2023-05-06T05:16:43.636Z,71.7383
2023-05-06T05:18:44.427Z,71.7480
2023-05-06T05:19:44.625Z,71.7444
2023-05-06T05:20:45.665Z,71.7355
2023-05-06T05:21:46.825Z,71.7245
2023-05-06T05:22:47.778Z,71.7107
2023-05-06T05:23:49.014Z,71.6991
2023-05-06T05:24:50.124Z,71.6688
2023-05-06T05:25:50.813Z,71.6330
2023-05-06T05:26:51.984Z,71.5863
2023-05-06T05:27:52.926Z,71.5289
2023-05-06T05:28:54.000Z,71.4603
2023-05-06T05:29:55.167Z,71.3851
2023-05-06T05:30:56.379Z,71.3146
2023-05-06T05:31:57.518Z,71.2509
2023-05-06T05:32:59.008Z,71.1856
2023-05-06T05:33:59.021Z,71.1279
2023-05-06T05:35:00.303Z,71.0793
2023-05-06T05:36:01.300Z,71.0290
2023-05-06T05:37:02.492Z,71.0030
2023-05-06T05:38:03.532Z,71.0016
2023-05-06T05:39:04.852Z,71.0039
2023-05-06T05:40:06.021Z,71.0257
2023-05-06T05:41:07.067Z,71.1069
2023-05-06T05:42:08.376Z,71.3678
2023-05-06T05:43:09.597Z,71.6068
2023-05-06T05:44:10.764Z,71.7786
2023-05-06T05:45:11.214Z,71.8806
2023-05-06T05:46:12.280Z,71.9287
2023-05-06T05:47:12.383Z,71.9503
2023-05-06T05:48:13.671Z,71.9565
2023-05-06T05:49:14.870Z,71.9800
2023-05-06T05:50:16.155Z,72.0160
2023-05-06T05:52:16.938Z,72.1765
2023-05-06T05:53:18.166Z,72.2474
2023-05-06T05:54:18.145Z,72.3206
2023-05-06T05:55:19.454Z,72.3903
2023-05-06T05:56:20.038Z,72.4073
2023-05-06T05:57:21.097Z,72.3941
2023-05-06T05:58:22.605Z,72.3773
2023-05-06T06:00:23.566Z,72.3411
2023-05-06T06:01:23.504Z,72.3339
2023-05-06T06:02:24.556Z,72.3265
2023-05-06T06:03:25.652Z,72.3258
2023-05-06T06:04:26.710Z,72.3300
2023-05-06T06:05:27.351Z,72.3256
2023-05-06T06:06:28.661Z,72.3224
2023-05-06T06:07:29.690Z,72.3130
2023-05-06T06:08:30.885Z,72.2936
2023-05-06T06:09:32.103Z,72.2695
2023-05-06T06:10:33.154Z,72.2270
2023-05-06T06:11:34.369Z,72.1741
2023-05-06T06:12:35.411Z,72.1349
2023-05-06T06:13:35.879Z,72.0949
2023-05-06T06:14:36.993Z,72.1498
2023-05-06T06:15:38.277Z,72.3566
2023-05-06T06:16:38.762Z,72.6217
2023-05-06T06:17:38.660Z,72.6734
2023-05-06T06:18:38.850Z,72.6349
2023-05-06T06:19:39.985Z,72.6469
2023-05-06T06:20:41.252Z,72.6117
2023-05-06T06:21:42.356Z,72.6026
2023-05-06T06:22:43.426Z,72.6082
2023-05-06T06:23:44.467Z,72.6471
2023-05-06T06:24:45.595Z,72.6349
2023-05-06T06:25:45.925Z,72.6490
2023-05-06T06:26:46.941Z,72.6607
2023-05-06T06:27:48.202Z,72.6904
2023-05-06T06:28:49.523Z,72.7529
2023-05-06T06:29:50.520Z,72.8133
2023-05-06T06:30:51.845Z,72.9115
2023-05-06T06:31:51.897Z,73.0067
2023-05-06T06:32:51.932Z,73.0976
2023-05-06T06:33:53.136Z,73.1756
2023-05-06T06:34:54.442Z,73.2531
2023-05-06T06:35:54.632Z,73.2643
2023-05-06T06:36:55.853Z,73.2437
2023-05-06T06:37:57.116Z,73.2128
2023-05-06T06:38:58.360Z,73.1687
2023-05-06T06:39:58.172Z,73.1239
2023-05-06T06:40:59.418Z,73.0815
2023-05-06T06:42:00.616Z,73.0323
2023-05-06T06:43:01.644Z,72.9896
2023-05-06T06:44:02.793Z,72.9415
2023-05-06T06:45:04.075Z,72.8961
2023-05-06T06:46:05.239Z,72.8536
2023-05-06T06:47:06.551Z,72.8223
2023-05-06T06:48:06.677Z,72.7961
2023-05-06T06:49:06.708Z,72.7631
2023-05-06T06:50:07.737Z,72.7203
2023-05-06T06:52:08.582Z,72.6262
2023-05-06T06:53:09.908Z,72.5750
2023-05-06T06:54:11.102Z,72.5159
2023-05-06T06:55:11.696Z,72.4577
2023-05-06T06:56:11.624Z,72.3949
2023-05-06T06:57:11.611Z,72.3187
2023-05-06T06:58:12.666Z,72.2444
2023-05-06T06:59:14.040Z,72.1699
2023-05-06T07:00:15.052Z,72.1020
2023-05-06T07:03:17.628Z,71.9848
2023-05-06T07:04:18.933Z,71.9683
2023-05-06T07:05:19.941Z,71.9550
2023-05-06T07:06:20.790Z,71.9355
2023-05-06T07:07:21.131Z,71.9018
2023-05-06T07:08:21.659Z,71.8448
2023-05-06T07:09:22.401Z,71.7665
2023-05-06T07:10:22.668Z,71.6732
2023-05-06T07:11:23.041Z,71.5751
2023-05-06T07:12:23.649Z,71.5235
2023-05-06T07:13:24.469Z,71.4976
2023-05-06T07:14:25.224Z,71.5223
2023-05-06T07:16:25.796Z,71.5698
2023-05-06T07:17:26.150Z,71.6263
2023-05-06T07:18:26.106Z,71.6581
2023-05-06T07:19:26.279Z,71.6783
2023-05-06T07:20:27.329Z,71.6936
2023-05-06T07:21:28.459Z,71.6829
2023-05-06T07:22:28.616Z,71.6434
2023-05-06T07:23:31.897Z,71.5807
2023-05-06T07:24:30.885Z,71.5448
2023-05-06T07:25:32.059Z,71.4710
2023-05-06T07:26:33.414Z,71.4097
2023-05-06T07:27:34.711Z,71.3877
2023-05-06T07:28:35.941Z,71.3680
2023-05-06T07:29:36.105Z,71.3992
2023-05-06T07:30:37.438Z,71.4180
2023-05-06T07:31:37.768Z,71.4493
2023-05-06T07:32:38.927Z,71.4848
2023-05-06T07:33:40.252Z,71.4945
2023-05-06T07:34:41.359Z,71.4784
2023-05-06T07:35:41.525Z,71.4440
2023-05-06T07:36:42.764Z,71.3997
2023-05-06T07:37:43.763Z,71.3558
2023-05-06T07:38:44.800Z,71.3225
2023-05-06T07:39:45.660Z,71.3081
2023-05-06T07:40:46.822Z,71.3184
2023-05-06T07:41:47.349Z,71.3409
2023-05-06T07:42:48.253Z,71.3807
2023-05-06T07:43:48.416Z,71.4113
2023-05-06T07:44:49.208Z,71.4478
2023-05-06T07:45:50.200Z,71.4897
2023-05-06T07:46:51.244Z,71.5277
2023-05-06T07:47:51.077Z,71.5580
2023-05-06T07:48:51.864Z,71.5896
2023-05-06T07:49:52.597Z,71.6327
2023-05-06T07:50:53.018Z,71.7084
2023-05-06T07:51:54.902Z,71.7809
2023-05-06T07:52:54.995Z,71.8392
2023-05-06T07:53:55.624Z,71.8611
2023-05-06T07:54:56.606Z,71.8796
2023-05-06T07:55:56.779Z,71.9209
2023-05-06T07:56:57.226Z,71.9362
2023-05-06T07:57:58.506Z,71.9244
2023-05-06T07:58:59.778Z,71.9072
2023-05-06T07:59:59.982Z,71.8927
2023-05-06T08:01:01.282Z,71.8718
2023-05-06T08:02:02.580Z,71.8514
2023-05-06T08:03:04.060Z,71.8320
2023-05-06T08:04:04.152Z,71.8489
2023-05-06T08:05:04.913Z,71.8270
2023-05-06T08:07:12.970Z,71.7869
2023-05-06T08:08:14.214Z,71.7497
2023-05-06T08:09:22.241Z,71.7152
2023-05-06T08:10:15.798Z,71.6919
2023-05-06T08:11:18.823Z,71.6727
2023-05-06T08:12:17.599Z,71.6579
2023-05-06T08:13:18.900Z,71.6358
2023-05-06T08:14:20.137Z,71.6059
2023-05-06T08:15:20.129Z,71.5762
2023-05-06T08:16:22.576Z,71.5279
2023-05-06T08:17:21.800Z,71.4339
2023-05-06T08:18:23.496Z,71.3266
2023-05-06T08:19:23.469Z,71.1898
2023-05-06T08:20:23.279Z,71.0419
2023-05-06T08:21:24.153Z,70.9183
2023-05-06T08:22:25.360Z,70.7935
2023-05-06T08:23:26.412Z,70.6183
2023-05-06T08:24:27.292Z,70.4285
2023-05-06T08:25:27.416Z,70.2442
2023-05-06T08:26:28.509Z,70.0737
2023-05-06T08:27:29.298Z,69.9166
2023-05-06T08:28:30.194Z,69.7707
2023-05-06T08:29:31.008Z,69.6334
2023-05-06T08:30:32.138Z,69.4863
2023-05-06T08:31:33.191Z,69.3425
2023-05-06T08:32:33.300Z,69.1913
2023-05-06T08:33:33.512Z,69.0666
2023-05-06T08:34:33.759Z,68.9400
2023-05-06T08:35:34.010Z,68.8211
2023-05-06T08:36:34.831Z,68.7156
2023-05-06T08:37:35.906Z,68.6242
2023-05-06T08:38:36.809Z,68.5431
2023-05-06T08:39:37.822Z,68.4690
2023-05-06T08:40:38.685Z,68.4019
2023-05-06T08:41:39.972Z,68.3440
2023-05-06T08:42:41.122Z,68.2979
2023-05-06T08:43:42.183Z,68.2551
2023-05-06T08:44:43.213Z,68.2154
2023-05-06T08:45:44.163Z,68.1701
2023-05-06T08:46:44.451Z,68.0837
2023-05-06T08:47:45.482Z,68.0180
2023-05-06T08:48:46.320Z,67.9637
2023-05-06T08:49:47.441Z,67.9138
2023-05-06T08:50:48.468Z,67.8582
2023-05-06T08:51:49.712Z,67.8179
2023-05-06T08:52:51.036Z,67.7906
2023-05-06T08:53:52.188Z,67.7622
2023-05-06T08:54:52.295Z,67.7252
2023-05-06T08:55:52.485Z,67.6903
2023-05-06T08:56:53.772Z,67.6449
2023-05-06T08:57:54.276Z,67.5523
2023-05-06T08:58:55.369Z,67.3071
2023-05-06T08:59:56.647Z,66.9757
2023-05-06T09:00:57.487Z,66.7350
2023-05-06T09:01:57.719Z,66.5370
2023-05-06T09:02:58.853Z,66.2887
2023-05-06T09:03:59.617Z,66.0393
2023-05-06T09:05:00.847Z,65.8268
2023-05-06T09:06:00.854Z,65.7551
2023-05-06T09:07:01.990Z,65.7094
2023-05-06T09:08:03.266Z,65.6747
2023-05-06T09:09:04.508Z,65.5901
2023-05-06T09:10:05.347Z,65.5662
2023-05-06T09:11:06.380Z,65.5347
2023-05-06T09:12:07.610Z,65.4881
2023-05-06T09:13:08.684Z,65.4910
2023-05-06T09:14:09.840Z,65.5035
2023-05-06T09:15:10.741Z,65.5018
2023-05-06T09:16:11.688Z,65.5018
2023-05-06T09:17:12.849Z,65.5021
2023-05-06T09:18:13.066Z,65.4938
2023-05-06T09:19:14.017Z,65.4764
2023-05-06T09:20:14.817Z,65.4304
2023-05-06T09:21:15.456Z,65.3811
2023-05-06T09:22:15.609Z,65.3393
2023-05-06T09:23:16.603Z,65.3053
2023-05-06T09:24:17.647Z,65.2907
2023-05-06T09:25:18.603Z,65.2846
2023-05-06T09:26:19.575Z,65.2737
2023-05-06T09:27:20.108Z,65.2604
2023-05-06T09:28:21.395Z,65.2401
2023-05-06T09:29:22.406Z,65.2266
2023-05-06T09:30:23.625Z,65.2181
2023-05-06T09:31:24.368Z,65.2113
2023-05-06T09:32:25.377Z,65.2064
2023-05-06T09:33:25.905Z,65.2148
2023-05-06T09:34:26.986Z,65.2193
2023-05-06T09:35:27.037Z,65.2386
2023-05-06T09:36:28.381Z,65.2707
2023-05-06T09:37:29.399Z,65.3241
2023-05-06T09:38:30.358Z,65.3816
2023-05-06T09:39:31.351Z,65.4366
2023-05-06T09:40:32.268Z,65.4984
2023-05-06T09:41:33.265Z,65.5520
2023-05-06T09:42:34.190Z,65.5948
2023-05-06T09:43:35.206Z,65.6322
2023-05-06T09:44:36.538Z,65.6627
2023-05-06T09:45:37.336Z,65.6864
2023-05-06T09:46:38.751Z,65.7037
2023-05-06T09:47:39.079Z,65.7218
2023-05-06T09:48:39.096Z,65.7347
2023-05-06T09:49:40.064Z,65.7335
2023-05-06T09:50:40.975Z,65.7270
2023-05-06T09:51:41.938Z,65.7200
2023-05-06T09:52:43.052Z,65.7035
2023-05-06T09:53:44.107Z,65.6708
2023-05-06T09:54:45.021Z,65.6105
2023-05-06T09:55:45.131Z,65.5085
2023-05-06T09:56:46.188Z,65.3779
2023-05-06T09:57:46.468Z,65.2238
2023-05-06T09:58:47.529Z,65.0592
2023-05-06T09:59:48.656Z,64.8970
2023-05-06T10:00:48.836Z,64.7592
2023-05-06T10:01:49.247Z,64.6528
2023-05-06T10:02:49.448Z,64.5458
2023-05-06T10:03:49.617Z,64.4315
2023-05-06T10:04:50.229Z,64.2717
2023-05-06T10:05:50.870Z,64.1712
2023-05-06T10:06:51.821Z,64.1391
2023-05-06T10:07:52.869Z,64.1531
2023-05-06T10:08:53.884Z,64.1975
2023-05-06T10:09:54.981Z,64.2543
2023-05-06T10:10:56.014Z,64.3252
2023-05-06T10:11:57.044Z,64.3766
2023-05-06T10:12:57.181Z,64.4186
2023-05-06T10:13:58.294Z,64.4550
2023-05-06T10:14:58.440Z,64.4871
2023-05-06T10:15:59.605Z,64.5120
2023-05-06T10:16:59.939Z,64.5353
2023-05-06T10:18:00.253Z,64.5510
2023-05-06T10:19:01.221Z,64.5663
2023-05-06T10:20:01.881Z,64.5793
2023-05-06T10:21:02.818Z,64.5889
2023-05-06T10:22:05.587Z,64.5955
2023-05-06T10:23:04.580Z,64.6043
2023-05-06T10:24:05.403Z,64.5915
2023-05-06T10:25:06.567Z,64.5719
2023-05-06T10:26:07.719Z,64.5452
2023-05-06T10:27:08.766Z,64.5122
2023-05-06T10:28:23.170Z,64.4739
2023-05-06T10:29:13.412Z,64.4346
2023-05-06T10:30:14.560Z,64.3578
2023-05-06T10:31:15.691Z,64.2761
2023-05-06T10:32:15.608Z,64.1825
2023-05-06T10:33:16.948Z,64.0578
2023-05-06T10:34:18.025Z,63.9135
2023-05-06T10:36:18.865Z,63.6008
2023-05-06T10:37:19.935Z,63.4406
2023-05-06T10:38:20.875Z,63.2550
2023-05-06T10:39:21.931Z,63.0650
2023-05-06T10:40:23.098Z,62.8846
2023-05-06T10:41:24.065Z,62.6934
2023-05-06T10:42:25.453Z,62.4937
2023-05-06T10:43:26.495Z,62.2975
2023-05-06T10:44:27.619Z,62.1130
2023-05-06T10:45:28.769Z,61.9354
2023-05-06T10:46:29.801Z,61.7585
2023-05-06T10:47:30.900Z,61.6121
2023-05-06T10:48:32.009Z,61.5153
2023-05-06T10:49:33.340Z,61.4688
2023-05-06T10:50:34.482Z,61.4424
2023-05-06T10:51:35.397Z,61.4124
2023-05-06T10:52:36.652Z,61.3779
2023-05-06T10:53:37.546Z,61.3425
2023-05-06T10:56:39.279Z,61.1371
2023-05-06T10:57:40.292Z,60.9664
2023-05-06T10:58:41.474Z,60.8078
2023-05-06T10:59:42.599Z,60.6452
2023-05-06T11:00:43.432Z,60.2569
2023-05-06T11:01:43.711Z,59.8969
2023-05-06T11:02:49.398Z,59.6840
2023-05-06T11:03:49.983Z,59.5762
2023-05-06T11:04:51.004Z,59.5297
2023-05-06T11:05:52.139Z,59.5185
2023-05-06T11:06:53.195Z,59.5195
2023-05-06T11:07:54.322Z,59.5199
2023-05-06T11:08:55.369Z,59.5108
2023-05-06T11:09:56.389Z,59.4565
2023-05-06T11:10:57.404Z,59.3490
2023-05-06T11:11:58.333Z,59.2176
2023-05-06T11:12:58.557Z,59.0877
2023-05-06T11:13:59.728Z,59.0111
2023-05-06T11:15:00.906Z,58.9162
2023-05-06T11:16:02.105Z,58.7009
2023-05-06T11:17:03.630Z,58.2866
2023-05-06T11:18:04.755Z,57.4776
2023-05-06T11:19:04.856Z,56.6599
2023-05-06T11:21:05.230Z,55.9623
2023-05-06T11:22:06.246Z,55.8422
2023-05-06T11:23:06.383Z,55.7750
2023-05-06T11:24:07.293Z,55.7592
2023-05-06T11:25:08.298Z,55.7400
2023-05-06T11:26:09.329Z,55.7319
2023-05-06T11:27:10.671Z,55.7602
2023-05-06T11:28:10.900Z,55.8457
2023-05-06T11:29:11.508Z,55.9812
2023-05-06T11:30:12.785Z,56.1368
2023-05-06T11:31:12.661Z,56.2960
2023-05-06T11:32:12.865Z,56.4413
2023-05-06T11:33:14.031Z,56.5558
2023-05-06T11:34:15.291Z,56.6745
2023-05-06T11:35:16.215Z,56.8088
2023-05-06T11:36:17.390Z,56.9522
2023-05-06T11:37:18.519Z,57.0858
2023-05-06T11:38:18.584Z,57.1926
2023-05-06T11:39:19.633Z,57.2642
2023-05-06T11:40:19.875Z,57.3267
2023-05-06T11:41:20.852Z,57.3836
2023-05-06T11:42:21.769Z,57.4483
2023-05-06T11:43:22.830Z,57.5019
2023-05-06T11:44:23.891Z,57.5399
2023-05-06T11:46:24.595Z,57.5589
2023-05-06T11:47:24.736Z,57.5734
2023-05-06T11:48:24.750Z,57.5839
2023-05-06T11:49:26.063Z,57.5042
2023-05-06T11:50:26.245Z,57.2277
2023-05-06T11:51:27.415Z,56.9885
2023-05-06T11:52:27.503Z,56.8599
2023-05-06T11:53:27.840Z,56.8201
2023-05-06T11:55:28.991Z,56.8490
2023-05-06T11:56:29.475Z,56.9169
2023-05-06T11:57:30.635Z,57.0267
2023-05-06T11:58:30.773Z,57.1560
2023-05-06T11:59:31.432Z,57.2935
2023-05-06T12:00:31.715Z,57.4330
2023-05-06T12:01:31.992Z,57.5706
2023-05-06T12:02:32.763Z,57.7030
2023-05-06T12:03:34.738Z,57.8402
2023-05-06T12:04:34.952Z,57.9405
2023-05-06T12:05:36.414Z,57.9929
2023-05-06T12:07:36.017Z,57.9686
2023-05-06T12:08:36.036Z,57.8183
2023-05-06T12:09:36.117Z,57.4993
2023-05-06T12:10:37.137Z,57.1339
2023-05-06T12:11:37.218Z,56.7160
2023-05-06T12:12:37.963Z,56.1939
2023-05-06T12:13:38.953Z,55.6197
2023-05-06T12:14:39.245Z,55.0429
2023-05-06T12:15:39.832Z,54.4792
2023-05-06T12:16:40.114Z,53.8988
2023-05-06T12:18:44.137Z,52.8902
2023-05-06T12:19:45.399Z,52.5525
2023-05-06T12:20:45.851Z,52.1540
2023-05-06T12:21:45.909Z,51.7673
2023-05-06T12:22:46.321Z,51.3580
2023-05-06T12:23:48.535Z,50.9725
2023-05-06T12:25:36.641Z,50.3050
2023-05-06T12:26:37.770Z,49.9363
2023-05-06T12:27:38.135Z,49.5324
2023-05-06T12:28:38.420Z,49.0856
2023-05-06T12:29:39.392Z,48.6503
2023-05-06T12:30:40.721Z,48.3600
2023-05-06T12:31:41.998Z,48.1655
2023-05-06T12:32:42.096Z,47.9109
2023-05-06T12:33:43.429Z,47.4047